Time;durP1;ratioP1;P1;durP2;ratioP2;P2;SDS_P1;SDS_P2;PMS_P1;PMS_P2;Temp;Humidity;BMP_temperature;BMP_pressure;BME280_temperature;BME280_humidity;BME280_pressure;Samples;Min_cycle;Max_cycle;Signal;HPM_P1;HPM_P2
2021/05/25 00:00:20;;;;;;;11.80;6.07;;;10.90;99.90;;;;;;10415378;28;20363;-61
2021/05/25 00:05:30;;;;;;;10.40;4.40;;;10.80;99.90;;;;;;10415581;28;20041;-61
2021/05/25 00:10:32;;;;;;;5.82;3.97;;;10.80;99.90;;;;;;10415645;28;20073;-61
2021/05/25 00:15:36;;;;;;;5.25;3.90;;;10.70;99.90;;;;;;10415085;28;20045;-61
2021/05/25 00:20:38;;;;;;;6.50;4.03;;;10.70;99.90;;;;;;10413829;28;20493;-61
2021/05/25 00:25:40;;;;;;;8.82;5.10;;;10.70;99.90;;;;;;10413467;28;20048;-60
2021/05/25 00:30:42;;;;;;;9.95;6.40;;;10.60;99.90;;;;;;10414661;28;20048;-61
2021/05/25 00:35:44;;;;;;;12.55;5.68;;;10.50;99.90;;;;;;10422333;28;20045;-60
2021/05/25 00:40:47;;;;;;;5.18;4.63;;;10.60;99.90;;;;;;10423351;28;20046;-61
2021/05/25 00:45:49;;;;;;;11.55;5.95;;;10.60;99.90;;;;;;10422948;28;20478;-61
2021/05/25 00:50:53;;;;;;;5.25;4.63;;;10.50;99.90;;;;;;10421989;28;20052;-61
2021/05/25 00:55:55;;;;;;;8.13;6.32;;;10.50;99.90;;;;;;10422137;28;20080;-61
2021/05/25 01:00:57;;;;;;;5.15;4.65;;;10.40;99.90;;;;;;10421989;28;20056;-61
2021/05/25 01:05:59;;;;;;;7.65;5.38;;;10.40;99.90;;;;;;10421620;28;20084;-60
2021/05/25 01:11:03;;;;;;;7.07;4.82;;;10.30;99.90;;;;;;10420230;28;20496;-60
2021/05/25 01:16:06;;;;;;;6.03;4.32;;;10.30;99.90;;;;;;10420925;28;20045;-61
2021/05/25 01:21:11;;;;;;;7.47;4.00;;;10.30;99.90;;;;;;10421076;28;20470;-61
2021/05/25 01:26:16;;;;;;;7.30;4.45;;;10.30;99.90;;;;;;10421622;28;20049;-60
2021/05/25 01:31:18;;;;;;;4.60;4.07;;;10.20;99.90;;;;;;10419993;28;20053;-60
2021/05/25 01:36:20;;;;;;;5.70;4.60;;;10.20;99.90;;;;;;10420457;28;20037;-60
2021/05/25 01:41:22;;;;;;;4.93;3.13;;;10.20;99.90;;;;;;10420266;28;20482;-61
2021/05/25 01:46:24;;;;;;;4.05;3.47;;;10.00;99.90;;;;;;10418654;28;20060;-61
2021/05/25 01:51:26;;;;;;;7.18;3.80;;;10.00;99.90;;;;;;10419771;28;20504;-61
2021/05/25 01:56:28;;;;;;;7.03;3.80;;;10.00;99.90;;;;;;10419863;28;20367;-61
2021/05/25 02:01:30;;;;;;;4.35;3.40;;;10.00;99.90;;;;;;10419688;28;20052;-61
2021/05/25 02:06:32;;;;;;;4.95;3.85;;;9.80;99.90;;;;;;10419571;28;20499;-60
2021/05/25 02:11:38;;;;;;;4.45;3.10;;;9.80;99.90;;;;;;10419227;28;20075;-61
2021/05/25 02:16:40;;;;;;;5.82;3.40;;;9.70;99.90;;;;;;10418795;28;20370;-60
2021/05/25 02:21:42;;;;;;;5.63;3.15;;;9.60;99.90;;;;;;10418721;28;20049;-60
2021/05/25 02:26:44;;;;;;;9.07;4.47;;;9.60;99.90;;;;;;10418668;28;20084;-60
2021/05/25 02:31:46;;;;;;;7.35;3.45;;;9.60;99.90;;;;;;10417390;28;20042;-61
2021/05/25 02:36:48;;;;;;;4.88;2.92;;;9.50;99.90;;;;;;10418014;28;20129;-60
2021/05/25 02:41:50;;;;;;;6.20;2.67;;;9.40;99.90;;;;;;10417807;28;20393;-60
2021/05/25 02:46:52;;;;;;;7.85;3.42;;;9.30;99.90;;;;;;10417221;28;20052;-60
2021/05/25 02:51:54;;;;;;;5.38;2.80;;;9.40;99.90;;;;;;10417015;28;20038;-59
2021/05/25 02:56:56;;;;;;;8.43;2.83;;;9.30;99.90;;;;;;10416607;28;20041;-58
2021/05/25 03:01:58;;;;;;;7.88;2.63;;;9.20;99.90;;;;;;10416676;28;20065;-58
2021/05/25 03:07:00;;;;;;;3.53;2.85;;;9.20;99.90;;;;;;10416558;28;20076;-58
2021/05/25 03:12:03;;;;;;;4.95;2.53;;;9.10;99.90;;;;;;10416481;28;20077;-58
2021/05/25 03:17:05;;;;;;;5.97;3.10;;;9.00;99.90;;;;;;10416697;28;20066;-59
2021/05/25 03:22:07;;;;;;;10.35;2.95;;;9.00;99.90;;;;;;10416859;28;20392;-58
2021/05/25 03:27:09;;;;;;;5.40;2.72;;;9.10;99.90;;;;;;10414968;28;20045;-59
2021/05/25 03:32:11;;;;;;;3.28;2.33;;;9.10;99.90;;;;;;10415164;28;20052;-58
2021/05/25 03:37:13;;;;;;;5.43;2.97;;;9.00;99.90;;;;;;10415854;28;20045;-58
2021/05/25 03:42:15;;;;;;;3.22;2.28;;;9.10;99.90;;;;;;10416303;28;20115;-58
2021/05/25 03:47:18;;;;;;;6.63;3.35;;;9.10;99.90;;;;;;10415701;28;20420;-58
2021/05/25 03:52:21;;;;;;;8.35;3.55;;;9.00;99.90;;;;;;10415681;28;20045;-58
2021/05/25 04:02:32;;;;;;;6.95;3.25;;;9.00;99.90;;;;;;10415461;28;20380;-58
2021/05/25 04:07:34;;;;;;;5.93;3.08;;;8.90;99.90;;;;;;10418224;28;20069;-58
2021/05/25 04:12:37;;;;;;;8.00;3.17;;;9.00;99.90;;;;;;10423671;28;20378;-58
2021/05/25 04:17:41;;;;;;;4.82;4.05;;;9.00;99.90;;;;;;10423635;28;20141;-58
2021/05/25 04:22:43;;;;;;;8.13;3.80;;;9.10;99.90;;;;;;10423303;28;20473;-58
2021/05/25 04:27:45;;;;;;;7.13;4.97;;;9.10;99.90;;;;;;10423265;28;20041;-58
2021/05/25 04:32:49;;;;;;;6.43;4.30;;;9.10;99.90;;;;;;10423529;28;20045;-58
2021/05/25 04:37:51;;;;;;;4.00;3.60;;;9.20;99.90;;;;;;10422537;28;20045;-58
2021/05/25 04:42:54;;;;;;;5.72;4.07;;;9.20;99.90;;;;;;10423469;28;20132;-58
2021/05/25 04:47:56;;;;;;;8.15;6.00;;;9.20;99.90;;;;;;10422409;28;20042;-58
2021/05/25 04:52:58;;;;;;;8.90;6.10;;;9.20;99.90;;;;;;10421983;28;20053;-58
2021/05/25 04:58:00;;;;;;;14.98;6.53;;;9.20;99.90;;;;;;10422191;28;20044;-58
2021/05/25 05:03:03;;;;;;;9.80;6.20;;;9.10;99.90;;;;;;10421706;28;20127;-58
2021/05/25 05:08:06;;;;;;;8.50;5.60;;;9.20;99.90;;;;;;10422105;28;20080;-61
2021/05/25 05:13:09;;;;;;;5.80;5.30;;;9.30;99.90;;;;;;10419983;28;20053;-60
2021/05/25 05:18:11;;;;;;;5.93;5.32;;;9.20;99.90;;;;;;10420138;28;20073;-60
2021/05/25 05:23:13;;;;;;;7.15;4.55;;;9.20;99.90;;;;;;10421028;28;20132;-60
2021/05/25 05:28:15;;;;;;;8.57;5.38;;;9.30;99.90;;;;;;10421066;28;20038;-60
2021/05/25 05:33:17;;;;;;;7.65;4.38;;;9.40;99.90;;;;;;10419664;28;20116;-61
2021/05/25 05:38:19;;;;;;;7.40;6.13;;;9.40;99.90;;;;;;10420308;28;20385;-60
2021/05/25 05:43:24;;;;;;;7.68;6.15;;;9.30;99.90;;;;;;10420272;28;20064;-60
2021/05/25 05:48:27;;;;;;;8.25;5.93;;;9.40;99.90;;;;;;10420664;28;20047;-60
2021/05/25 05:53:29;;;;;;;13.35;6.60;;;9.50;99.90;;;;;;10420673;28;20052;-60
2021/05/25 05:58:31;;;;;;;10.38;6.55;;;9.60;99.90;;;;;;10419646;28;20037;-61
2021/05/25 06:03:33;;;;;;;9.45;6.00;;;9.70;99.90;;;;;;10419139;28;20053;-59
2021/05/25 06:08:35;;;;;;;10.95;8.00;;;9.80;99.90;;;;;;10419436;28;20363;-60
2021/05/25 06:13:38;;;;;;;10.25;8.90;;;9.70;99.90;;;;;;10419141;28;20077;-60
2021/05/25 06:18:39;;;;;;;10.82;9.05;;;9.70;99.90;;;;;;10418929;28;20442;-60
2021/05/25 06:23:41;;;;;;;12.38;8.70;;;9.70;99.90;;;;;;10418761;28;20060;-60
2021/05/25 06:28:44;;;;;;;10.23;8.25;;;9.80;99.90;;;;;;10417520;28;20073;-59
2021/05/25 06:33:46;;;;;;;11.80;10.20;;;9.90;99.90;;;;;;10417751;28;20389;-60
2021/05/25 06:38:48;;;;;;;10.02;9.00;;;10.00;99.90;;;;;;10418661;28;20037;-60
2021/05/25 06:43:50;;;;;;;11.38;10.30;;;9.90;99.90;;;;;;10418246;28;20049;-60
2021/05/25 06:48:52;;;;;;;8.05;7.32;;;10.00;99.90;;;;;;10417571;28;20051;-60
2021/05/25 06:53:54;;;;;;;11.38;9.68;;;10.10;99.90;;;;;;10417483;28;20037;-60
2021/05/25 06:58:56;;;;;;;11.32;9.48;;;10.00;99.90;;;;;;10417549;28;20048;-60
2021/05/25 07:03:58;;;;;;;10.82;9.27;;;10.10;99.90;;;;;;10416937;28;20045;-60
2021/05/25 07:09:00;;;;;;;12.95;9.63;;;10.00;99.90;;;;;;10417167;28;20049;-61
2021/05/25 07:14:02;;;;;;;10.50;8.13;;;10.00;99.90;;;;;;10417157;28;20052;-60
2021/05/25 07:19:04;;;;;;;11.80;10.07;;;10.00;99.90;;;;;;10417238;28;20073;-60
2021/05/25 07:24:07;;;;;;;9.25;8.30;;;10.10;99.90;;;;;;10416434;28;20078;-60
2021/05/25 07:29:09;;;;;;;9.70;8.73;;;10.30;99.90;;;;;;10417057;28;20076;-60
2021/05/25 07:34:12;;;;;;;10.73;8.98;;;10.30;99.90;;;;;;10415966;28;20041;-60
2021/05/25 07:39:16;;;;;;;10.32;9.25;;;10.40;99.90;;;;;;10416345;28;20042;-60
2021/05/25 07:44:18;;;;;;;11.02;10.00;;;10.80;99.90;;;;;;10415807;28;20091;-60
2021/05/25 07:49:20;;;;;;;10.98;9.88;;;10.90;99.90;;;;;;10415544;28;20045;-60
2021/05/25 07:54:24;;;;;;;12.25;9.88;;;10.80;99.90;;;;;;10415511;28;20056;-60
2021/05/25 07:59:26;;;;;;;8.68;7.75;;;11.00;99.90;;;;;;10415005;28;20052;-60
2021/05/25 08:04:29;;;;;;;7.90;7.28;;;11.30;99.90;;;;;;10414920;28;20444;-60
2021/05/25 08:09:31;;;;;;;7.25;6.55;;;11.70;99.90;;;;;;10413677;28;20120;-61
2021/05/25 08:14:34;;;;;;;10.25;6.45;;;12.10;99.90;;;;;;10413518;28;20139;-60
2021/05/25 08:19:38;;;;;;;6.05;5.15;;;12.10;99.90;;;;;;10415192;28;20045;-61
2021/05/25 08:24:40;;;;;;;6.10;5.53;;;12.50;99.90;;;;;;10414461;28;20493;-60
2021/05/25 08:29:42;;;;;;;5.47;5.07;;;12.60;99.90;;;;;;10414926;28;20045;-60
2021/05/25 08:34:44;;;;;;;5.63;4.68;;;12.60;99.90;;;;;;10414353;28;20052;-60
2021/05/25 08:39:46;;;;;;;6.07;4.03;;;12.90;99.90;;;;;;10414855;28;20088;-58
2021/05/25 08:45:09;;;;;;;10.07;3.40;;;13.00;99.90;;;;;;10414361;28;20060;-61
2021/05/25 08:50:15;;;;;;;6.47;3.40;;;13.00;99.90;;;;;;10414557;28;20041;-58
2021/05/25 08:55:19;;;;;;;4.70;2.50;;;13.00;99.90;;;;;;10419789;28;20041;-59
2021/05/25 09:00:25;;;;;;;5.28;2.97;;;12.90;99.90;;;;;;10422083;28;20121;-59
2021/05/25 09:05:27;;;;;;;3.58;2.53;;;13.00;99.90;;;;;;10422139;28;20133;-59
2021/05/25 09:10:41;;;;;;;6.53;2.80;;;13.80;99.90;;;;;;10420569;28;20071;-59
2021/05/25 09:15:49;;;;;;;6.05;2.20;;;13.80;99.90;;;;;;10421737;28;20056;-59
2021/05/25 09:21:00;;;;;;;3.47;1.40;;;13.40;99.90;;;;;;10421287;28;20385;-59
2021/05/25 09:26:06;;;;;;;2.65;1.40;;;12.40;99.90;;;;;;10420821;28;20052;-59
2021/05/25 09:31:08;;;;;;;4.40;1.27;;;11.80;99.90;;;;;;10421080;28;20045;-60
2021/05/25 09:36:11;;;;;;;4.32;1.05;;;11.40;99.90;;;;;;10420537;28;20048;-60
2021/05/25 09:41:13;;;;;;;1.75;0.90;;;11.20;99.90;;;;;;10420787;28;20071;-59
2021/05/25 09:46:15;;;;;;;1.30;0.80;;;10.90;99.90;;;;;;10420538;28;20049;-59
2021/05/25 09:51:30;;;;;;;6.68;1.30;;;10.90;99.90;;;;;;10420433;28;20121;-59
2021/05/25 09:56:35;;;;;;;2.22;1.17;;;11.00;99.90;;;;;;10419934;28;20045;-61
2021/05/25 10:01:38;;;;;;;1.67;1.00;;;11.40;99.90;;;;;;10420100;28;20049;-60
2021/05/25 10:06:46;;;;;;;2.67;1.40;;;11.50;99.90;;;;;;10418472;28;20080;-59
2021/05/25 10:11:50;;;;;;;2.67;1.50;;;12.00;99.90;;;;;;10419868;28;20045;-59
2021/05/25 10:16:53;;;;;;;4.75;2.03;;;12.20;99.90;;;;;;10417403;28;20037;-59
2021/05/25 10:21:56;;;;;;;3.15;1.83;;;12.40;99.90;;;;;;10419105;28;20053;-59
2021/05/25 10:26:58;;;;;;;6.40;2.35;;;12.10;99.90;;;;;;10418449;28;20044;-59
2021/05/25 10:32:02;;;;;;;9.77;3.60;;;12.30;99.90;;;;;;10418074;28;20045;-59
2021/05/25 10:37:14;;;;;;;4.57;3.88;;;13.10;99.90;;;;;;10417843;28;20045;-59
2021/05/25 10:42:19;;;;;;;;;;;13.40;99.90;;;;;;10418250;28;20046;-59
2021/05/25 10:47:38;;;;;;;8.20;4.72;;;14.10;99.90;;;;;;10417650;28;19923;-60
2021/05/25 10:53:01;;;;;;;8.55;5.00;;;13.80;99.90;;;;;;10417050;28;20072;-59
2021/05/25 10:58:18;;;;;;;9.07;5.35;;;13.60;99.90;;;;;;10417398;28;20046;-59
2021/05/25 11:03:21;;;;;;;8.77;5.20;;;12.90;99.90;;;;;;10416696;28;20400;-59
2021/05/25 11:08:29;;;;;;;8.88;5.15;;;13.00;99.90;;;;;;10417369;28;20043;-60
2021/05/25 11:13:38;;;;;;;15.50;4.07;;;13.10;99.90;;;;;;10416505;28;20471;-60
2021/05/25 11:19:11;;;;;;;7.40;4.28;;;13.70;99.90;;;;;;10416602;28;20041;-60
2021/05/25 11:24:35;;;;;;;7.55;2.97;;;14.50;99.90;;;;;;10407309;28;20051;-60
2021/05/25 11:29:54;;;;;;;8.57;2.92;;;14.30;99.90;;;;;;10416381;28;20037;-60
2021/05/25 11:35:07;;;;;;;8.40;3.53;;;14.10;99.90;;;;;;10415599;28;20394;-60
2021/05/25 11:40:15;;;;;;;5.20;2.47;;;13.80;99.90;;;;;;10415848;28;20473;-61
2021/05/25 11:45:21;;;;;;;4.15;1.73;;;14.00;99.90;;;;;;10415287;28;20053;-60
2021/05/25 11:50:25;;;;;;;7.13;1.67;;;14.40;99.90;;;;;;10416034;28;20128;-59
2021/05/25 11:55:41;;;;;;;2.60;1.45;;;15.50;99.90;;;;;;10415474;28;20053;-59
2021/05/25 12:00:43;;;;;;;4.15;1.20;;;16.00;99.90;;;;;;10415465;28;20397;-60
2021/05/25 12:05:45;;;;;;;9.55;2.20;;;16.90;99.90;;;;;;10415215;28;20389;-59
2021/05/25 12:10:48;;;;;;;12.88;1.73;;;16.90;99.90;;;;;;10415810;28;20037;-60
2021/05/25 12:15:53;;;;;;;6.13;2.00;;;16.40;99.90;;;;;;10415266;28;20044;-61
2021/05/25 12:20:56;;;;;;;2.53;1.10;;;16.00;99.90;;;;;;10415967;28;20052;-60
2021/05/25 12:25:58;;;;;;;6.70;1.45;;;15.50;99.90;;;;;;10415190;28;20052;-60
2021/05/25 12:31:02;;;;;;;3.22;0.70;;;14.80;99.90;;;;;;10421663;28;20053;-60
2021/05/25 12:36:21;;;;;;;2.35;0.60;;;14.30;99.90;;;;;;10422320;28;20056;-59
2021/05/25 12:41:25;;;;;;;5.20;1.02;;;13.30;99.90;;;;;;10422666;28;20067;-60
2021/05/25 12:46:26;;;;;;;3.40;0.90;;;13.00;99.90;;;;;;10422013;28;20387;-60
2021/05/25 12:51:28;;;;;;;5.97;1.80;;;13.20;99.90;;;;;;10422385;28;20041;-60
2021/05/25 12:56:30;;;;;;;4.95;1.15;;;13.50;99.90;;;;;;10422658;28;20053;-60
2021/05/25 13:01:34;;;;;;;2.60;1.45;;;13.80;99.90;;;;;;10422104;28;20057;-59
2021/05/25 13:07:01;;;;;;;1.70;1.00;;;13.70;99.90;;;;;;10421918;28;20037;-60
2021/05/25 13:12:12;;;;;;;2.40;1.15;;;13.80;99.90;;;;;;10421816;28;20049;-59
2021/05/25 13:17:16;;;;;;;3.97;1.30;;;14.00;99.90;;;;;;10422271;28;20052;-59
2021/05/25 13:22:23;;;;;;;5.28;1.60;;;13.80;99.90;;;;;;10421832;28;20045;-60
2021/05/25 13:27:28;;;;;;;5.07;1.77;;;13.50;99.90;;;;;;10421085;28;20386;-60
2021/05/25 13:32:32;;;;;;;4.18;2.05;;;13.50;99.90;;;;;;10421108;28;20045;-60
2021/05/25 13:37:37;;;;;;;4.85;2.30;;;13.30;99.90;;;;;;10420797;28;20083;-60
2021/05/25 13:42:41;;;;;;;7.38;2.17;;;13.40;99.90;;;;;;10420456;28;20041;-61
2021/05/25 13:47:43;;;;;;;7.53;2.13;;;13.40;99.90;;;;;;10420484;28;20050;-59
2021/05/25 13:52:44;;;;;;;5.03;1.52;;;13.30;99.90;;;;;;10419956;28;20492;-60
2021/05/25 13:57:47;;;;;;;3.33;1.20;;;12.60;99.90;;;;;;10419664;28;20482;-60
2021/05/25 14:02:49;;;;;;;4.05;0.93;;;12.20;99.90;;;;;;10420870;28;20389;-59
2021/05/25 14:07:53;;;;;;;2.65;1.20;;;12.10;99.90;;;;;;10419456;28;20413;-59
2021/05/25 14:12:55;;;;;;;3.08;0.90;;;12.10;99.90;;;;;;10419299;28;20045;-60
2021/05/25 14:17:57;;;;;;;3.05;1.10;;;12.40;99.90;;;;;;10419136;28;20038;-59
2021/05/25 14:23:00;;;;;;;1.98;1.10;;;13.30;99.90;;;;;;10419372;28;20041;-59
2021/05/25 14:28:03;;;;;;;6.93;1.40;;;13.70;99.90;;;;;;10417535;28;20042;-59
2021/05/25 14:33:12;;;;;;;4.40;1.45;;;14.10;99.90;;;;;;10418527;28;20054;-59
2021/05/25 14:38:16;;;;;;;4.68;1.60;;;14.20;99.90;;;;;;10418540;28;20056;-60
2021/05/25 14:43:19;;;;;;;2.40;1.60;;;14.10;99.90;;;;;;10417210;28;20426;-59
2021/05/25 14:48:21;;;;;;;4.82;1.27;;;13.80;99.90;;;;;;10417772;28;20384;-60
2021/05/25 14:53:30;;;;;;;3.45;1.80;;;13.80;99.90;;;;;;10417137;28;20041;-60
2021/05/25 14:58:32;;;;;;;4.95;1.80;;;14.10;99.90;;;;;;10416775;28;20512;-60
2021/05/25 15:03:38;;;;;;;5.72;1.73;;;14.10;99.90;;;;;;10417799;28;20045;-59
2021/05/25 15:13:48;;;;;;;3.75;1.20;;;13.90;99.90;;;;;;10416694;28;20478;-60
2021/05/25 15:18:50;;;;;;;3.55;1.60;;;13.50;99.90;;;;;;10416023;28;20056;-59
2021/05/25 15:23:52;;;;;;;2.05;1.30;;;13.10;99.90;;;;;;10416676;28;20041;-60
2021/05/25 15:28:54;;;;;;;1.38;1.23;;;12.90;99.90;;;;;;10415374;28;20044;-59
2021/05/25 15:33:56;;;;;;;2.83;0.90;;;13.10;99.90;;;;;;10416124;28;20041;-60
2021/05/25 15:38:58;;;;;;;2.08;1.40;;;13.00;99.90;;;;;;10416672;28;20041;-59
2021/05/25 15:44:00;;;;;;;2.08;1.30;;;12.70;99.90;;;;;;10415665;28;20060;-61
2021/05/25 15:49:02;;;;;;;1.58;1.20;;;12.70;99.90;;;;;;10416152;28;20049;-60
2021/05/25 15:54:05;;;;;;;7.25;1.75;;;12.70;99.90;;;;;;10416473;28;20103;-60
2021/05/25 15:59:07;;;;;;;2.55;1.77;;;13.00;99.90;;;;;;10415896;28;20041;-60
2021/05/25 16:04:10;;;;;;;3.33;1.50;;;12.80;99.90;;;;;;10415352;28;20045;-60
2021/05/25 16:09:12;;;;;;;4.65;2.10;;;13.10;99.90;;;;;;10415289;28;20053;-60
2021/05/25 16:14:14;;;;;;;5.65;1.65;;;13.00;99.90;;;;;;10415779;28;20041;-59
2021/05/25 16:19:16;;;;;;;4.85;2.10;;;12.60;99.90;;;;;;10415168;28;20071;-60
2021/05/25 16:24:18;;;;;;;2.60;1.60;;;12.80;99.90;;;;;;10414751;28;20486;-60
2021/05/25 16:29:22;;;;;;;2.97;2.05;;;12.70;99.90;;;;;;10414571;28;20041;-60
2021/05/25 16:34:30;;;;;;;3.22;2.08;;;12.60;99.90;;;;;;10414433;28;20477;-59
2021/05/25 16:39:33;;;;;;;4.20;1.95;;;12.60;99.90;;;;;;10415103;28;20038;-60
2021/05/25 16:44:35;;;;;;;3.88;2.38;;;12.50;99.90;;;;;;10414844;28;20047;-60
2021/05/25 16:49:37;;;;;;;6.93;2.42;;;12.30;99.90;;;;;;10414793;28;20124;-60
2021/05/25 16:54:40;;;;;;;4.63;2.53;;;12.50;99.90;;;;;;10413210;28;20049;-60
2021/05/25 16:59:43;;;;;;;3.92;2.40;;;12.20;99.90;;;;;;10414867;28;20042;-59
2021/05/25 17:20:48;;;;;;;5.70;2.35;;;12.20;99.90;;;;;;10407680;28;20046;-59
2021/05/25 17:31:10;;;;;;;5.43;2.22;;;12.10;99.90;;;;;;10421679;28;20045;-60
2021/05/25 17:36:12;;;;;;;2.88;1.95;;;11.80;99.90;;;;;;10420862;28;20057;-60
2021/05/25 17:41:14;;;;;;;8.20;3.58;;;11.90;99.90;;;;;;10420419;28;20477;-59
2021/05/25 17:46:16;;;;;;;8.70;2.55;;;12.10;99.90;;;;;;10420366;28;20045;-59
2021/05/25 17:51:18;;;;;;;12.68;4.90;;;11.90;99.90;;;;;;10418616;28;20042;-59
2021/05/25 17:56:20;;;;;;;14.40;4.15;;;11.90;99.90;;;;;;10419383;28;20045;-59
2021/05/25 18:01:22;;;;;;;8.93;4.10;;;11.80;99.90;;;;;;10418701;28;20041;-59
2021/05/25 18:06:24;;;;;;;8.38;3.65;;;11.70;99.90;;;;;;10419294;28;20107;-59
2021/05/25 18:11:26;;;;;;;7.07;3.85;;;11.70;99.90;;;;;;10419119;28;20045;-59
2021/05/25 18:16:28;;;;;;;10.38;4.43;;;11.70;99.90;;;;;;10418475;28;20128;-60
2021/05/25 18:21:36;;;;;;;8.27;4.07;;;11.80;99.90;;;;;;10418952;28;20379;-60
2021/05/25 18:26:39;;;;;;;9.05;3.95;;;11.80;99.90;;;;;;10417491;28;20051;-59
2021/05/25 18:31:43;;;;;;;11.13;4.25;;;11.80;99.90;;;;;;10418398;28;20045;-59
2021/05/25 18:37:01;;;;;;;14.43;4.93;;;11.60;99.90;;;;;;10417912;28;20473;-59
2021/05/25 18:42:05;;;;;;;9.65;4.20;;;11.70;99.90;;;;;;10418337;28;20044;-59
2021/05/25 18:47:08;;;;;;;11.55;5.05;;;11.60;99.90;;;;;;10417976;28;20389;-60
2021/05/25 18:52:14;;;;;;;9.88;4.28;;;11.60;99.90;;;;;;10416876;28;20398;-60
2021/05/25 18:57:28;;;;;;;6.90;3.72;;;11.60;99.90;;;;;;10418330;28;20049;-59
2021/05/25 19:02:30;;;;;;;8.10;3.42;;;11.60;99.90;;;;;;10417183;28;20525;-59
2021/05/25 19:07:34;;;;;;;7.78;3.30;;;11.60;99.90;;;;;;10417309;28;20072;-59
2021/05/25 19:12:37;;;;;;;9.13;4.10;;;11.60;99.90;;;;;;10416539;28;20473;-59
2021/05/25 19:17:40;;;;;;;7.30;3.88;;;11.70;99.90;;;;;;10417133;28;20069;-60
2021/05/25 19:22:59;;;;;;;10.30;3.42;;;11.60;99.90;;;;;;10416455;28;20079;-59
2021/05/25 19:28:01;;;;;;;6.40;3.28;;;11.60;99.90;;;;;;10416115;28;20381;-59
2021/05/25 19:33:03;;;;;;;10.18;6.10;;;11.50;99.90;;;;;;10415798;28;20046;-60
2021/05/25 19:38:05;;;;;;;5.60;3.03;;;11.60;99.90;;;;;;10415303;28;20389;-60
2021/05/25 19:43:07;;;;;;;1.70;1.60;;;11.50;99.90;;;;;;10415673;28;20056;-60
2021/05/25 19:48:10;;;;;;;5.03;1.88;;;11.30;99.90;;;;;;10416336;28;20049;-59
2021/05/25 19:53:12;;;;;;;2.67;2.13;;;11.10;99.90;;;;;;10415680;28;20041;-60
2021/05/25 19:58:15;;;;;;;4.53;2.10;;;11.10;99.90;;;;;;10415459;28;20048;-59
2021/05/25 20:03:17;;;;;;;6.40;2.55;;;11.10;99.90;;;;;;10414905;28;20183;-59
2021/05/25 20:08:20;;;;;;;6.72;3.15;;;11.20;99.90;;;;;;10415086;28;20448;-59
2021/05/25 20:13:25;;;;;;;8.57;3.33;;;11.10;99.90;;;;;;10414959;28;20045;-60
2021/05/25 20:18:27;;;;;;;10.73;4.07;;;11.10;99.90;;;;;;10413687;28;20394;-59
2021/05/25 20:23:29;;;;;;;8.10;3.17;;;11.10;99.90;;;;;;10415199;28;20042;-60
2021/05/25 20:28:34;;;;;;;7.25;3.00;;;11.10;99.90;;;;;;10415218;28;20041;-59
2021/05/25 20:37:35;;;;;;;6.95;2.92;;;11.10;99.90;;;;;;10414511;28;20052;-59
2021/05/25 20:39:10;;;;;;;9.35;3.50;;;11.10;99.90;;;;;;10414754;28;20366;-59
2021/05/25 20:44:13;;;;;;;11.60;3.47;;;11.10;99.90;;;;;;10414255;28;20058;-59
2021/05/25 20:49:15;;;;;;;8.80;4.50;;;11.20;99.90;;;;;;10382602;28;20481;-59
2021/05/25 20:54:17;;;;;;;12.05;4.53;;;11.20;99.90;;;;;;10421787;28;20048;-60
2021/05/25 20:59:20;;;;;;;13.80;6.38;;;11.00;99.90;;;;;;10422226;28;20046;-60
2021/05/25 21:04:22;;;;;;;10.30;3.40;;;11.20;99.90;;;;;;10421778;28;20041;-61
2021/05/25 21:09:24;;;;;;;13.27;5.07;;;11.00;99.90;;;;;;10421427;28;20490;-59
2021/05/25 21:14:26;;;;;;;8.55;4.38;;;10.90;99.90;;;;;;10420872;28;20542;-59
2021/05/25 21:19:28;;;;;;;11.18;4.97;;;11.10;99.90;;;;;;10420057;28;20041;-60
2021/05/25 21:24:30;;;;;;;9.25;5.78;;;11.10;99.90;;;;;;10420744;28;20049;-59
2021/05/25 21:29:32;;;;;;;12.25;4.05;;;11.00;99.90;;;;;;10420437;28;20041;-58
2021/05/25 21:34:34;;;;;;;10.23;5.78;;;11.00;99.90;;;;;;10420141;28;20041;-58
2021/05/25 21:39:36;;;;;;;13.90;5.55;;;11.00;99.90;;;;;;10420715;28;20045;-58
2021/05/25 21:44:38;;;;;;;10.82;7.13;;;10.80;99.90;;;;;;10420392;28;20050;-58
2021/05/25 21:49:40;;;;;;;13.07;6.90;;;10.80;99.90;;;;;;10420483;28;20053;-59
2021/05/25 21:54:42;;;;;;;12.13;7.90;;;10.90;99.90;;;;;;10420080;28;20049;-58
2021/05/25 21:59:44;;;;;;;10.82;8.60;;;10.90;99.90;;;;;;10420094;28;20045;-59
2021/05/25 22:04:47;;;;;;;10.80;8.63;;;10.90;99.90;;;;;;10420426;28;20045;-58
2021/05/25 22:09:49;;;;;;;11.20;7.32;;;10.90;99.90;;;;;;10419734;28;20038;-59
2021/05/25 22:14:51;;;;;;;12.73;10.07;;;10.90;99.90;;;;;;10419203;28;20053;-59
2021/05/25 22:19:53;;;;;;;19.17;12.85;;;10.90;99.90;;;;;;10419390;28;20133;-58
2021/05/25 22:24:55;;;;;;;17.80;11.77;;;10.70;99.90;;;;;;10419468;28;20041;-59
2021/05/25 22:29:57;;;;;;;15.02;8.73;;;10.80;99.90;;;;;;10419218;28;20129;-59
2021/05/25 22:34:59;;;;;;;17.35;11.93;;;10.60;99.90;;;;;;10418206;28;20466;-58
2021/05/25 22:40:01;;;;;;;16.50;11.07;;;10.60;99.90;;;;;;10418707;28;20132;-59
2021/05/25 22:45:06;;;;;;;13.02;11.27;;;10.70;99.90;;;;;;10417912;28;20045;-59
2021/05/25 22:50:12;;;;;;;15.63;11.32;;;10.60;99.90;;;;;;10418819;28;20050;-60
2021/05/25 22:55:15;;;;;;;17.83;10.57;;;10.50;99.90;;;;;;10417548;28;20041;-60
2021/05/25 23:00:19;;;;;;;13.90;10.13;;;10.60;99.90;;;;;;10417852;28;20037;-59
2021/05/25 23:05:25;;;;;;;19.55;9.82;;;10.50;99.90;;;;;;10417932;28;20077;-59
2021/05/25 23:10:27;;;;;;;14.07;10.40;;;10.30;99.90;;;;;;10417161;28;20050;-59
2021/05/25 23:15:29;;;;;;;10.30;8.57;;;10.30;99.90;;;;;;10416570;28;20048;-59
2021/05/25 23:20:31;;;;;;;18.48;10.48;;;10.20;99.90;;;;;;10417026;28;20049;-59
2021/05/25 23:25:37;;;;;;;19.75;10.63;;;10.30;99.90;;;;;;10416773;28;20041;-59
2021/05/25 23:30:39;;;;;;;19.80;11.27;;;10.30;99.90;;;;;;10416570;28;20065;-59
2021/05/25 23:35:41;;;;;;;14.95;9.63;;;10.30;99.90;;;;;;10414692;28;20049;-59
2021/05/25 23:40:43;;;;;;;17.67;9.82;;;10.10;99.90;;;;;;10416353;28;20037;-59
2021/05/25 23:45:45;;;;;;;10.70;8.55;;;10.20;99.90;;;;;;10414180;28;20052;-58
2021/05/25 23:50:48;;;;;;;14.63;8.38;;;10.10;99.90;;;;;;10416155;28;20042;-59
2021/05/25 23:55:50;;;;;;;13.48;6.55;;;10.10;99.90;;;;;;10415744;28;20048;-59
